sensor_id;sensor_type;location;lat;lon;timestamp;P1;durP1;ratioP1;P2;durP2;ratioP2
48205;SDS011;33995;48.202;16.260;2023-08-21T00:01:54;11.50;;;10.60;;
48205;SDS011;33995;48.202;16.260;2023-08-21T00:04:26;12.33;;;11.33;;
48205;SDS011;33995;48.202;16.260;2023-08-21T00:06:58;11.90;;;11.00;;
48205;SDS011;33995;48.202;16.260;2023-08-21T00:09:26;11.90;;;10.97;;
48205;SDS011;33995;48.202;16.260;2023-08-21T00:11:59;12.10;;;11.00;;
48205;SDS011;33995;48.202;16.260;2023-08-21T00:14:41;12.57;;;11.57;;
48205;SDS011;33995;48.202;16.260;2023-08-21T00:17:09;11.80;;;10.90;;
48205;SDS011;33995;48.202;16.260;2023-08-21T00:19:40;11.70;;;10.80;;
48205;SDS011;33995;48.202;16.260;2023-08-21T00:22:12;12.43;;;11.33;;
48205;SDS011;33995;48.202;16.260;2023-08-21T00:24:44;11.90;;;10.90;;
48205;SDS011;33995;48.202;16.260;2023-08-21T00:27:17;12.23;;;11.10;;
48205;SDS011;33995;48.202;16.260;2023-08-21T00:29:46;12.33;;;11.33;;
48205;SDS011;33995;48.202;16.260;2023-08-21T00:32:18;12.60;;;11.60;;
48205;SDS011;33995;48.202;16.260;2023-08-21T00:34:47;11.80;;;10.80;;
48205;SDS011;33995;48.202;16.260;2023-08-21T00:37:19;12.20;;;11.20;;
48205;SDS011;33995;48.202;16.260;2023-08-21T00:39:48;12.07;;;10.97;;
48205;SDS011;33995;48.202;16.260;2023-08-21T00:42:15;11.63;;;10.73;;
48205;SDS011;33995;48.202;16.260;2023-08-21T00:44:44;13.07;;;11.90;;
48205;SDS011;33995;48.202;16.260;2023-08-21T00:47:13;12.17;;;11.20;;
48205;SDS011;33995;48.202;16.260;2023-08-21T00:49:43;12.93;;;11.73;;
48205;SDS011;33995;48.202;16.260;2023-08-21T00:52:16;12.03;;;11.00;;
48205;SDS011;33995;48.202;16.260;2023-08-21T00:54:49;12.43;;;11.30;;
48205;SDS011;33995;48.202;16.260;2023-08-21T00:57:19;12.73;;;11.63;;
48205;SDS011;33995;48.202;16.260;2023-08-21T00:59:59;12.23;;;11.23;;
48205;SDS011;33995;48.202;16.260;2023-08-21T01:02:39;12.93;;;11.93;;
48205;SDS011;33995;48.202;16.260;2023-08-21T01:05:14;12.60;;;11.70;;
48205;SDS011;33995;48.202;16.260;2023-08-21T01:07:50;12.93;;;11.73;;
48205;SDS011;33995;48.202;16.260;2023-08-21T01:10:52;12.73;;;11.63;;
48205;SDS011;33995;48.202;16.260;2023-08-21T01:13:44;12.40;;;11.40;;
48205;SDS011;33995;48.202;16.260;2023-08-21T01:16:18;12.90;;;11.60;;
48205;SDS011;33995;48.202;16.260;2023-08-21T01:18:52;12.23;;;11.23;;
48205;SDS011;33995;48.202;16.260;2023-08-21T01:21:24;13.53;;;12.43;;
48205;SDS011;33995;48.202;16.260;2023-08-21T01:23:52;12.37;;;11.37;;
48205;SDS011;33995;48.202;16.260;2023-08-21T01:26:21;13.20;;;12.00;;
48205;SDS011;33995;48.202;16.260;2023-08-21T01:28:53;13.20;;;12.10;;
48205;SDS011;33995;48.202;16.260;2023-08-21T01:31:26;13.00;;;11.80;;
48205;SDS011;33995;48.202;16.260;2023-08-21T01:34:01;13.40;;;12.20;;
48205;SDS011;33995;48.202;16.260;2023-08-21T01:36:39;12.93;;;11.83;;
48205;SDS011;33995;48.202;16.260;2023-08-21T01:39:21;12.77;;;11.77;;
48205;SDS011;33995;48.202;16.260;2023-08-21T01:42:02;12.43;;;11.53;;
48205;SDS011;33995;48.202;16.260;2023-08-21T01:44:31;12.47;;;11.57;;
48205;SDS011;33995;48.202;16.260;2023-08-21T01:47:03;12.80;;;11.70;;
48205;SDS011;33995;48.202;16.260;2023-08-21T01:49:38;12.73;;;11.83;;
48205;SDS011;33995;48.202;16.260;2023-08-21T01:52:13;12.53;;;11.53;;
48205;SDS011;33995;48.202;16.260;2023-08-21T01:54:42;12.17;;;11.27;;
48205;SDS011;33995;48.202;16.260;2023-08-21T01:57:13;13.10;;;12.07;;
48205;SDS011;33995;48.202;16.260;2023-08-21T01:59:45;12.87;;;11.87;;
48205;SDS011;33995;48.202;16.260;2023-08-21T02:02:15;12.97;;;12.00;;
48205;SDS011;33995;48.202;16.260;2023-08-21T02:04:46;13.00;;;12.00;;
48205;SDS011;33995;48.202;16.260;2023-08-21T02:07:19;13.10;;;12.00;;
48205;SDS011;33995;48.202;16.260;2023-08-21T02:09:48;12.50;;;11.50;;
48205;SDS011;33995;48.202;16.260;2023-08-21T02:12:16;13.00;;;11.90;;
48205;SDS011;33995;48.202;16.260;2023-08-21T02:14:48;12.93;;;11.93;;
48205;SDS011;33995;48.202;16.260;2023-08-21T02:17:25;13.17;;;12.17;;
48205;SDS011;33995;48.202;16.260;2023-08-21T02:19:56;12.80;;;11.80;;
48205;SDS011;33995;48.202;16.260;2023-08-21T02:22:28;12.23;;;11.30;;
48205;SDS011;33995;48.202;16.260;2023-08-21T02:25:03;13.33;;;12.13;;
48205;SDS011;33995;48.202;16.260;2023-08-21T02:27:32;12.50;;;11.50;;
48205;SDS011;33995;48.202;16.260;2023-08-21T02:30:01;13.00;;;12.00;;
48205;SDS011;33995;48.202;16.260;2023-08-21T02:32:39;12.77;;;11.77;;
48205;SDS011;33995;48.202;16.260;2023-08-21T02:35:22;12.93;;;11.80;;
48205;SDS011;33995;48.202;16.260;2023-08-21T02:37:53;13.73;;;12.40;;
48205;SDS011;33995;48.202;16.260;2023-08-21T02:40:26;13.67;;;12.57;;
48205;SDS011;33995;48.202;16.260;2023-08-21T02:42:57;12.67;;;11.67;;
48205;SDS011;33995;48.202;16.260;2023-08-21T02:45:29;13.50;;;12.50;;
48205;SDS011;33995;48.202;16.260;2023-08-21T02:47:59;13.80;;;12.43;;
48205;SDS011;33995;48.202;16.260;2023-08-21T02:50:35;13.23;;;12.03;;
48205;SDS011;33995;48.202;16.260;2023-08-21T02:53:04;12.90;;;11.80;;
48205;SDS011;33995;48.202;16.260;2023-08-21T02:55:32;13.40;;;12.40;;
48205;SDS011;33995;48.202;16.260;2023-08-21T02:58:06;13.80;;;12.70;;
48205;SDS011;33995;48.202;16.260;2023-08-21T03:00:39;13.50;;;12.33;;
48205;SDS011;33995;48.202;16.260;2023-08-21T03:03:14;13.83;;;12.63;;
48205;SDS011;33995;48.202;16.260;2023-08-21T03:05:46;14.00;;;12.90;;
48205;SDS011;33995;48.202;16.260;2023-08-21T03:08:19;13.37;;;12.37;;
48205;SDS011;33995;48.202;16.260;2023-08-21T03:10:51;13.33;;;12.33;;
48205;SDS011;33995;48.202;16.260;2023-08-21T03:13:21;13.83;;;12.63;;
48205;SDS011;33995;48.202;16.260;2023-08-21T03:15:49;13.70;;;12.70;;
48205;SDS011;33995;48.202;16.260;2023-08-21T03:18:21;13.07;;;11.97;;
48205;SDS011;33995;48.202;16.260;2023-08-21T03:20:54;13.30;;;12.30;;
48205;SDS011;33995;48.202;16.260;2023-08-21T03:23:26;13.53;;;12.43;;
48205;SDS011;33995;48.202;16.260;2023-08-21T03:26:02;14.00;;;12.90;;
48205;SDS011;33995;48.202;16.260;2023-08-21T03:28:35;13.87;;;12.73;;
48205;SDS011;33995;48.202;16.260;2023-08-21T03:31:05;13.60;;;12.50;;
48205;SDS011;33995;48.202;16.260;2023-08-21T03:33:42;13.63;;;12.40;;
48205;SDS011;33995;48.202;16.260;2023-08-21T03:36:13;13.73;;;12.60;;
48205;SDS011;33995;48.202;16.260;2023-08-21T03:38:42;12.77;;;11.67;;
48205;SDS011;33995;48.202;16.260;2023-08-21T03:41:14;13.50;;;12.40;;
48205;SDS011;33995;48.202;16.260;2023-08-21T03:43:44;13.83;;;12.80;;
48205;SDS011;33995;48.202;16.260;2023-08-21T03:46:12;13.93;;;12.83;;
48205;SDS011;33995;48.202;16.260;2023-08-21T03:48:43;13.73;;;12.53;;
48205;SDS011;33995;48.202;16.260;2023-08-21T03:51:17;12.87;;;11.87;;
48205;SDS011;33995;48.202;16.260;2023-08-21T03:53:52;12.57;;;11.50;;
48205;SDS011;33995;48.202;16.260;2023-08-21T03:56:26;13.20;;;12.20;;
48205;SDS011;33995;48.202;16.260;2023-08-21T03:58:58;12.93;;;11.80;;
48205;SDS011;33995;48.202;16.260;2023-08-21T04:01:31;13.90;;;12.70;;
48205;SDS011;33995;48.202;16.260;2023-08-21T04:04:11;14.07;;;12.80;;
48205;SDS011;33995;48.202;16.260;2023-08-21T04:06:42;13.43;;;12.33;;
48205;SDS011;33995;48.202;16.260;2023-08-21T04:09:12;12.70;;;11.70;;
48205;SDS011;33995;48.202;16.260;2023-08-21T04:11:43;13.80;;;12.60;;
48205;SDS011;33995;48.202;16.260;2023-08-21T04:14:13;13.33;;;12.33;;
48205;SDS011;33995;48.202;16.260;2023-08-21T04:16:45;13.67;;;12.47;;
48205;SDS011;33995;48.202;16.260;2023-08-21T04:19:17;12.83;;;11.87;;
48205;SDS011;33995;48.202;16.260;2023-08-21T04:21:50;13.80;;;12.60;;
48205;SDS011;33995;48.202;16.260;2023-08-21T04:24:17;13.43;;;12.43;;
48205;SDS011;33995;48.202;16.260;2023-08-21T04:26:50;13.80;;;12.70;;
48205;SDS011;33995;48.202;16.260;2023-08-21T04:29:20;13.40;;;12.30;;
48205;SDS011;33995;48.202;16.260;2023-08-21T04:31:51;13.57;;;12.37;;
48205;SDS011;33995;48.202;16.260;2023-08-21T04:34:27;13.40;;;12.20;;
48205;SDS011;33995;48.202;16.260;2023-08-21T04:37:00;14.07;;;12.87;;
48205;SDS011;33995;48.202;16.260;2023-08-21T04:39:29;13.60;;;12.53;;
48205;SDS011;33995;48.202;16.260;2023-08-21T04:42:07;13.20;;;12.00;;
48205;SDS011;33995;48.202;16.260;2023-08-21T04:44:38;14.63;;;13.33;;
48205;SDS011;33995;48.202;16.260;2023-08-21T04:50:03;13.60;;;12.50;;
48205;SDS011;33995;48.202;16.260;2023-08-21T04:52:34;14.27;;;13.17;;
48205;SDS011;33995;48.202;16.260;2023-08-21T04:55:05;13.33;;;12.23;;
48205;SDS011;33995;48.202;16.260;2023-08-21T04:57:42;14.80;;;13.50;;
48205;SDS011;33995;48.202;16.260;2023-08-21T05:00:13;14.30;;;13.10;;
48205;SDS011;33995;48.202;16.260;2023-08-21T05:02:46;14.27;;;13.07;;
48205;SDS011;33995;48.202;16.260;2023-08-21T05:05:22;13.50;;;12.40;;
48205;SDS011;33995;48.202;16.260;2023-08-21T05:08:00;14.27;;;12.93;;
48205;SDS011;33995;48.202;16.260;2023-08-21T05:10:33;13.67;;;12.53;;
48205;SDS011;33995;48.202;16.260;2023-08-21T05:13:01;13.10;;;12.03;;
48205;SDS011;33995;48.202;16.260;2023-08-21T05:15:34;13.80;;;12.67;;
48205;SDS011;33995;48.202;16.260;2023-08-21T05:18:05;14.27;;;13.00;;
48205;SDS011;33995;48.202;16.260;2023-08-21T05:20:34;14.70;;;13.20;;
48205;SDS011;33995;48.202;16.260;2023-08-21T05:23:07;14.27;;;13.07;;
48205;SDS011;33995;48.202;16.260;2023-08-21T05:25:38;13.80;;;12.60;;
48205;SDS011;33995;48.202;16.260;2023-08-21T05:28:09;13.00;;;11.90;;
48205;SDS011;33995;48.202;16.260;2023-08-21T05:30:38;14.53;;;13.23;;
48205;SDS011;33995;48.202;16.260;2023-08-21T05:33:11;13.33;;;12.17;;
48205;SDS011;33995;48.202;16.260;2023-08-21T05:35:44;14.40;;;12.97;;
48205;SDS011;33995;48.202;16.260;2023-08-21T05:38:15;13.67;;;12.57;;
48205;SDS011;33995;48.202;16.260;2023-08-21T05:40:47;13.50;;;12.30;;
48205;SDS011;33995;48.202;16.260;2023-08-21T05:43:17;13.50;;;12.40;;
48205;SDS011;33995;48.202;16.260;2023-08-21T05:45:49;14.50;;;13.30;;
48205;SDS011;33995;48.202;16.260;2023-08-21T05:48:21;14.50;;;13.30;;
48205;SDS011;33995;48.202;16.260;2023-08-21T05:50:54;13.13;;;12.03;;
48205;SDS011;33995;48.202;16.260;2023-08-21T05:53:26;14.00;;;12.90;;
48205;SDS011;33995;48.202;16.260;2023-08-21T05:56:00;14.17;;;12.80;;
48205;SDS011;33995;48.202;16.260;2023-08-21T05:58:28;14.27;;;12.93;;
48205;SDS011;33995;48.202;16.260;2023-08-21T06:01:06;13.90;;;12.80;;
48205;SDS011;33995;48.202;16.260;2023-08-21T06:03:38;13.30;;;12.20;;
48205;SDS011;33995;48.202;16.260;2023-08-21T06:06:30;13.73;;;12.63;;
48205;SDS011;33995;48.202;16.260;2023-08-21T06:09:02;13.63;;;12.50;;
48205;SDS011;33995;48.202;16.260;2023-08-21T06:11:32;14.03;;;12.73;;
48205;SDS011;33995;48.202;16.260;2023-08-21T06:14:07;14.00;;;12.70;;
48205;SDS011;33995;48.202;16.260;2023-08-21T06:16:38;13.83;;;12.63;;
48205;SDS011;33995;48.202;16.260;2023-08-21T06:19:08;13.70;;;12.60;;
48205;SDS011;33995;48.202;16.260;2023-08-21T06:21:35;14.27;;;13.00;;
48205;SDS011;33995;48.202;16.260;2023-08-21T06:24:07;13.70;;;12.60;;
48205;SDS011;33995;48.202;16.260;2023-08-21T06:26:41;14.03;;;12.80;;
48205;SDS011;33995;48.202;16.260;2023-08-21T06:29:22;13.37;;;12.27;;
48205;SDS011;33995;48.202;16.260;2023-08-21T06:32:04;13.67;;;12.37;;
48205;SDS011;33995;48.202;16.260;2023-08-21T06:34:43;13.20;;;12.10;;
48205;SDS011;33995;48.202;16.260;2023-08-21T06:37:18;13.37;;;12.30;;
48205;SDS011;33995;48.202;16.260;2023-08-21T06:39:48;12.90;;;11.80;;
48205;SDS011;33995;48.202;16.260;2023-08-21T06:42:24;13.17;;;12.07;;
48205;SDS011;33995;48.202;16.260;2023-08-21T06:44:55;13.47;;;12.13;;
48205;SDS011;33995;48.202;16.260;2023-08-21T06:47:28;13.20;;;12.10;;
48205;SDS011;33995;48.202;16.260;2023-08-21T06:50:04;13.70;;;12.50;;
48205;SDS011;33995;48.202;16.260;2023-08-21T06:52:40;13.43;;;12.13;;
48205;SDS011;33995;48.202;16.260;2023-08-21T06:55:15;13.63;;;12.43;;
48205;SDS011;33995;48.202;16.260;2023-08-21T06:57:43;13.00;;;11.87;;
48205;SDS011;33995;48.202;16.260;2023-08-21T07:00:24;13.23;;;12.13;;
48205;SDS011;33995;48.202;16.260;2023-08-21T07:02:55;13.10;;;12.10;;
48205;SDS011;33995;48.202;16.260;2023-08-21T07:05:46;13.53;;;12.30;;
48205;SDS011;33995;48.202;16.260;2023-08-21T07:08:32;13.07;;;11.97;;
48205;SDS011;33995;48.202;16.260;2023-08-21T07:11:04;13.47;;;12.33;;
48205;SDS011;33995;48.202;16.260;2023-08-21T07:13:50;13.00;;;11.90;;
48205;SDS011;33995;48.202;16.260;2023-08-21T07:16:19;12.67;;;11.47;;
48205;SDS011;33995;48.202;16.260;2023-08-21T07:18:48;12.73;;;11.73;;
48205;SDS011;33995;48.202;16.260;2023-08-21T07:21:20;12.30;;;11.37;;
48205;SDS011;33995;48.202;16.260;2023-08-21T07:24:03;12.77;;;11.40;;
48205;SDS011;33995;48.202;16.260;2023-08-21T07:26:43;12.93;;;11.80;;
48205;SDS011;33995;48.202;16.260;2023-08-21T07:29:15;11.83;;;10.87;;
48205;SDS011;33995;48.202;16.260;2023-08-21T07:31:47;11.70;;;10.70;;
48205;SDS011;33995;48.202;16.260;2023-08-21T07:34:20;12.33;;;11.30;;
48205;SDS011;33995;48.202;16.260;2023-08-21T07:36:53;11.90;;;10.77;;
48205;SDS011;33995;48.202;16.260;2023-08-21T07:39:30;11.87;;;10.67;;
48205;SDS011;33995;48.202;16.260;2023-08-21T07:41:58;11.80;;;10.70;;
48205;SDS011;33995;48.202;16.260;2023-08-21T07:44:27;11.10;;;10.20;;
48205;SDS011;33995;48.202;16.260;2023-08-21T07:47:00;12.03;;;11.03;;
48205;SDS011;33995;48.202;16.260;2023-08-21T07:49:32;11.17;;;10.27;;
48205;SDS011;33995;48.202;16.260;2023-08-21T07:52:06;11.97;;;10.87;;
48205;SDS011;33995;48.202;16.260;2023-08-21T07:54:37;11.70;;;10.50;;
48205;SDS011;33995;48.202;16.260;2023-08-21T07:57:09;10.50;;;9.50;;
48205;SDS011;33995;48.202;16.260;2023-08-21T07:59:41;10.23;;;9.43;;
48205;SDS011;33995;48.202;16.260;2023-08-21T08:02:13;10.57;;;9.57;;
48205;SDS011;33995;48.202;16.260;2023-08-21T08:04:46;9.83;;;9.10;;
48205;SDS011;33995;48.202;16.260;2023-08-21T08:07:19;9.87;;;9.03;;
48205;SDS011;33995;48.202;16.260;2023-08-21T08:09:48;10.03;;;9.20;;
48205;SDS011;33995;48.202;16.260;2023-08-21T08:12:15;10.23;;;9.30;;
48205;SDS011;33995;48.202;16.260;2023-08-21T08:14:53;9.83;;;9.00;;
48205;SDS011;33995;48.202;16.260;2023-08-21T08:17:26;9.90;;;9.00;;
48205;SDS011;33995;48.202;16.260;2023-08-21T08:19:53;10.43;;;9.63;;
48205;SDS011;33995;48.202;16.260;2023-08-21T08:22:22;9.87;;;8.97;;
48205;SDS011;33995;48.202;16.260;2023-08-21T08:24:54;10.00;;;9.13;;
48205;SDS011;33995;48.202;16.260;2023-08-21T08:27:22;10.10;;;9.30;;
48205;SDS011;33995;48.202;16.260;2023-08-21T08:29:56;10.07;;;9.17;;
48205;SDS011;33995;48.202;16.260;2023-08-21T08:32:24;10.43;;;9.53;;
48205;SDS011;33995;48.202;16.260;2023-08-21T08:34:59;9.80;;;9.00;;
48205;SDS011;33995;48.202;16.260;2023-08-21T08:37:30;9.80;;;9.10;;
48205;SDS011;33995;48.202;16.260;2023-08-21T08:40:03;9.50;;;8.73;;
48205;SDS011;33995;48.202;16.260;2023-08-21T08:42:38;9.90;;;9.03;;
48205;SDS011;33995;48.202;16.260;2023-08-21T08:45:14;10.00;;;9.00;;
48205;SDS011;33995;48.202;16.260;2023-08-21T08:48:03;9.97;;;9.00;;
48205;SDS011;33995;48.202;16.260;2023-08-21T08:50:37;9.63;;;8.73;;
48205;SDS011;33995;48.202;16.260;2023-08-21T08:53:13;9.83;;;9.00;;
48205;SDS011;33995;48.202;16.260;2023-08-21T08:56:08;10.10;;;9.10;;
48205;SDS011;33995;48.202;16.260;2023-08-21T08:58:46;9.40;;;8.70;;
48205;SDS011;33995;48.202;16.260;2023-08-21T09:01:14;9.17;;;8.47;;
48205;SDS011;33995;48.202;16.260;2023-08-21T09:03:46;9.80;;;8.83;;
48205;SDS011;33995;48.202;16.260;2023-08-21T09:06:21;9.50;;;8.60;;
48205;SDS011;33995;48.202;16.260;2023-08-21T09:09:01;10.40;;;8.90;;
48205;SDS011;33995;48.202;16.260;2023-08-21T09:11:35;9.03;;;8.23;;
48205;SDS011;33995;48.202;16.260;2023-08-21T09:14:15;10.83;;;8.70;;
48205;SDS011;33995;48.202;16.260;2023-08-21T09:17:00;8.83;;;8.03;;
48205;SDS011;33995;48.202;16.260;2023-08-21T09:19:32;8.50;;;7.80;;
48205;SDS011;33995;48.202;16.260;2023-08-21T09:22:17;8.30;;;7.60;;
48205;SDS011;33995;48.202;16.260;2023-08-21T09:27:39;8.57;;;7.67;;
48205;SDS011;33995;48.202;16.260;2023-08-21T09:30:10;8.33;;;7.63;;
48205;SDS011;33995;48.202;16.260;2023-08-21T09:32:58;8.43;;;7.63;;
48205;SDS011;33995;48.202;16.260;2023-08-21T09:35:32;8.80;;;8.00;;
48205;SDS011;33995;48.202;16.260;2023-08-21T09:38:00;8.20;;;7.40;;
48205;SDS011;33995;48.202;16.260;2023-08-21T09:40:28;9.10;;;8.30;;
48205;SDS011;33995;48.202;16.260;2023-08-21T09:43:02;8.60;;;7.80;;
48205;SDS011;33995;48.202;16.260;2023-08-21T09:45:51;8.93;;;8.13;;
48205;SDS011;33995;48.202;16.260;2023-08-21T09:48:26;8.73;;;7.93;;
48205;SDS011;33995;48.202;16.260;2023-08-21T09:50:56;8.80;;;7.90;;
48205;SDS011;33995;48.202;16.260;2023-08-21T09:53:29;8.30;;;7.63;;
48205;SDS011;33995;48.202;16.260;2023-08-21T09:56:09;8.53;;;7.73;;
48205;SDS011;33995;48.202;16.260;2023-08-21T09:58:47;8.43;;;7.67;;
48205;SDS011;33995;48.202;16.260;2023-08-21T10:01:25;9.43;;;8.07;;
48205;SDS011;33995;48.202;16.260;2023-08-21T10:03:55;8.67;;;7.97;;
48205;SDS011;33995;48.202;16.260;2023-08-21T10:06:29;9.63;;;8.00;;
48205;SDS011;33995;48.202;16.260;2023-08-21T10:09:01;8.80;;;7.90;;
48205;SDS011;33995;48.202;16.260;2023-08-21T10:11:33;8.73;;;7.93;;
48205;SDS011;33995;48.202;16.260;2023-08-21T10:14:02;9.07;;;8.13;;
48205;SDS011;33995;48.202;16.260;2023-08-21T10:16:36;9.80;;;9.00;;
48205;SDS011;33995;48.202;16.260;2023-08-21T10:19:14;9.50;;;8.70;;
48205;SDS011;33995;48.202;16.260;2023-08-21T10:21:41;9.13;;;8.37;;
48205;SDS011;33995;48.202;16.260;2023-08-21T10:24:26;9.23;;;8.43;;
48205;SDS011;33995;48.202;16.260;2023-08-21T10:27:02;9.23;;;8.37;;
48205;SDS011;33995;48.202;16.260;2023-08-21T10:29:41;10.17;;;8.60;;
48205;SDS011;33995;48.202;16.260;2023-08-21T10:32:24;8.90;;;8.20;;
48205;SDS011;33995;48.202;16.260;2023-08-21T10:34:55;9.10;;;8.30;;
48205;SDS011;33995;48.202;16.260;2023-08-21T10:37:26;8.50;;;7.70;;
48205;SDS011;33995;48.202;16.260;2023-08-21T10:40:24;8.70;;;7.90;;
48205;SDS011;33995;48.202;16.260;2023-08-21T10:42:54;9.30;;;8.40;;
48205;SDS011;33995;48.202;16.260;2023-08-21T10:45:35;9.10;;;8.27;;
48205;SDS011;33995;48.202;16.260;2023-08-21T10:48:29;9.60;;;8.80;;
48205;SDS011;33995;48.202;16.260;2023-08-21T10:51:01;8.90;;;8.00;;
48205;SDS011;33995;48.202;16.260;2023-08-21T10:53:38;10.97;;;8.07;;
48205;SDS011;33995;48.202;16.260;2023-08-21T10:56:12;9.30;;;8.50;;
48205;SDS011;33995;48.202;16.260;2023-08-21T10:58:43;8.60;;;7.80;;
48205;SDS011;33995;48.202;16.260;2023-08-21T11:01:16;8.57;;;7.87;;
48205;SDS011;33995;48.202;16.260;2023-08-21T11:03:53;8.70;;;8.00;;
48205;SDS011;33995;48.202;16.260;2023-08-21T11:06:21;8.07;;;7.37;;
48205;SDS011;33995;48.202;16.260;2023-08-21T11:09:00;8.27;;;7.57;;
48205;SDS011;33995;48.202;16.260;2023-08-21T11:11:34;9.13;;;8.30;;
48205;SDS011;33995;48.202;16.260;2023-08-21T11:14:02;10.05;;;9.18;;
48205;SDS011;33995;48.202;16.260;2023-08-21T11:16:32;9.55;;;8.60;;
48205;SDS011;33995;48.202;16.260;2023-08-21T11:19:04;9.85;;;8.48;;
48205;SDS011;33995;48.202;16.260;2023-08-21T11:21:54;12.05;;;8.13;;
48205;SDS011;33995;48.202;16.260;2023-08-21T11:24:39;8.85;;;8.15;;
48205;SDS011;33995;48.202;16.260;2023-08-21T11:27:16;8.57;;;7.85;;
48205;SDS011;33995;48.202;16.260;2023-08-21T11:29:53;8.45;;;7.65;;
48205;SDS011;33995;48.202;16.260;2023-08-21T11:32:26;7.10;;;6.55;;
48205;SDS011;33995;48.202;16.260;2023-08-21T11:34:57;7.60;;;7.00;;
48205;SDS011;33995;48.202;16.260;2023-08-21T11:37:42;7.43;;;6.75;;
48205;SDS011;33995;48.202;16.260;2023-08-21T11:40:20;8.57;;;7.68;;
48205;SDS011;33995;48.202;16.260;2023-08-21T11:42:51;8.32;;;7.53;;
48205;SDS011;33995;48.202;16.260;2023-08-21T11:45:25;8.90;;;8.02;;
48205;SDS011;33995;48.202;16.260;2023-08-21T11:48:01;8.48;;;7.70;;
48205;SDS011;33995;48.202;16.260;2023-08-21T11:50:32;8.10;;;7.50;;
48205;SDS011;33995;48.202;16.260;2023-08-21T11:53:02;8.48;;;7.50;;
48205;SDS011;33995;48.202;16.260;2023-08-21T11:55:39;8.93;;;7.88;;
48205;SDS011;33995;48.202;16.260;2023-08-21T11:58:27;8.55;;;7.70;;
48205;SDS011;33995;48.202;16.260;2023-08-21T12:01:03;8.25;;;7.55;;
48205;SDS011;33995;48.202;16.260;2023-08-21T12:03:38;8.05;;;7.25;;
48205;SDS011;33995;48.202;16.260;2023-08-21T12:06:11;8.20;;;7.40;;
48205;SDS011;33995;48.202;16.260;2023-08-21T12:08:44;7.93;;;7.22;;
48205;SDS011;33995;48.202;16.260;2023-08-21T12:11:12;8.38;;;6.80;;
48205;SDS011;33995;48.202;16.260;2023-08-21T12:13:41;7.40;;;6.70;;
48205;SDS011;33995;48.202;16.260;2023-08-21T12:16:16;7.28;;;6.57;;
48205;SDS011;33995;48.202;16.260;2023-08-21T12:18:47;7.00;;;6.30;;
48205;SDS011;33995;48.202;16.260;2023-08-21T12:21:20;6.90;;;6.20;;
48205;SDS011;33995;48.202;16.260;2023-08-21T12:23:56;7.40;;;6.80;;
48205;SDS011;33995;48.202;16.260;2023-08-21T12:26:25;8.55;;;6.40;;
48205;SDS011;33995;48.202;16.260;2023-08-21T12:29:06;7.35;;;6.68;;
48205;SDS011;33995;48.202;16.260;2023-08-21T12:31:38;6.95;;;6.35;;
48205;SDS011;33995;48.202;16.260;2023-08-21T12:34:17;7.18;;;6.47;;
48205;SDS011;33995;48.202;16.260;2023-08-21T12:36:49;7.03;;;6.32;;
48205;SDS011;33995;48.202;16.260;2023-08-21T12:39:24;7.13;;;6.60;;
48205;SDS011;33995;48.202;16.260;2023-08-21T12:42:05;7.90;;;7.13;;
48205;SDS011;33995;48.202;16.260;2023-08-21T12:44:38;7.30;;;6.80;;
48205;SDS011;33995;48.202;16.260;2023-08-21T12:47:08;7.35;;;6.75;;
48205;SDS011;33995;48.202;16.260;2023-08-21T12:49:37;8.43;;;6.57;;
48205;SDS011;33995;48.202;16.260;2023-08-21T12:52:05;7.43;;;6.82;;
48205;SDS011;33995;48.202;16.260;2023-08-21T12:54:39;8.27;;;6.97;;
48205;SDS011;33995;48.202;16.260;2023-08-21T12:57:10;7.65;;;6.95;;
48205;SDS011;33995;48.202;16.260;2023-08-21T12:59:43;7.40;;;6.70;;
48205;SDS011;33995;48.202;16.260;2023-08-21T13:02:17;7.53;;;6.75;;
48205;SDS011;33995;48.202;16.260;2023-08-21T13:04:49;7.68;;;6.97;;
48205;SDS011;33995;48.202;16.260;2023-08-21T13:07:21;7.80;;;6.68;;
48205;SDS011;33995;48.202;16.260;2023-08-21T13:09:55;8.73;;;7.38;;
48205;SDS011;33995;48.202;16.260;2023-08-21T13:12:28;7.90;;;7.10;;
48205;SDS011;33995;48.202;16.260;2023-08-21T13:15:05;9.60;;;7.60;;
48205;SDS011;33995;48.202;16.260;2023-08-21T13:17:44;9.73;;;6.72;;
48205;SDS011;33995;48.202;16.260;2023-08-21T13:20:20;7.10;;;6.40;;
48205;SDS011;33995;48.202;16.260;2023-08-21T13:22:54;7.40;;;6.60;;
48205;SDS011;33995;48.202;16.260;2023-08-21T13:25:32;8.38;;;6.20;;
48205;SDS011;33995;48.202;16.260;2023-08-21T13:28:10;7.40;;;6.70;;
48205;SDS011;33995;48.202;16.260;2023-08-21T13:30:43;7.40;;;6.80;;
48205;SDS011;33995;48.202;16.260;2023-08-21T13:33:17;7.07;;;6.32;;
48205;SDS011;33995;48.202;16.260;2023-08-21T13:35:57;7.07;;;6.13;;
48205;SDS011;33995;48.202;16.260;2023-08-21T13:38:30;6.95;;;6.30;;
48205;SDS011;33995;48.202;16.260;2023-08-21T13:40:59;7.28;;;6.57;;
48205;SDS011;33995;48.202;16.260;2023-08-21T13:43:34;8.93;;;6.18;;
48205;SDS011;33995;48.202;16.260;2023-08-21T13:46:22;8.15;;;6.40;;
48205;SDS011;33995;48.202;16.260;2023-08-21T13:48:57;6.93;;;6.30;;
48205;SDS011;33995;48.202;16.260;2023-08-21T13:51:30;7.30;;;6.28;;
48205;SDS011;33995;48.202;16.260;2023-08-21T13:54:12;6.45;;;5.85;;
48205;SDS011;33995;48.202;16.260;2023-08-21T13:56:45;6.80;;;6.00;;
48205;SDS011;33995;48.202;16.260;2023-08-21T13:59:18;5.90;;;5.40;;
48205;SDS011;33995;48.202;16.260;2023-08-21T14:01:46;6.07;;;5.57;;
48205;SDS011;33995;48.202;16.260;2023-08-21T14:04:21;6.85;;;5.65;;
48205;SDS011;33995;48.202;16.260;2023-08-21T14:06:51;7.15;;;5.95;;
48205;SDS011;33995;48.202;16.260;2023-08-21T14:09:23;7.07;;;5.65;;
48205;SDS011;33995;48.202;16.260;2023-08-21T14:11:55;8.35;;;5.95;;
48205;SDS011;33995;48.202;16.260;2023-08-21T14:14:25;7.65;;;5.30;;
48205;SDS011;33995;48.202;16.260;2023-08-21T14:16:56;6.32;;;5.72;;
48205;SDS011;33995;48.202;16.260;2023-08-21T14:19:29;5.90;;;5.43;;
48205;SDS011;33995;48.202;16.260;2023-08-21T14:21:58;5.88;;;5.47;;
48205;SDS011;33995;48.202;16.260;2023-08-21T14:24:26;5.90;;;4.90;;
48205;SDS011;33995;48.202;16.260;2023-08-21T14:27:02;6.57;;;5.97;;
48205;SDS011;33995;48.202;16.260;2023-08-21T14:29:39;5.85;;;5.35;;
48205;SDS011;33995;48.202;16.260;2023-08-21T14:32:16;6.28;;;5.45;;
48205;SDS011;33995;48.202;16.260;2023-08-21T14:34:48;6.20;;;5.43;;
48205;SDS011;33995;48.202;16.260;2023-08-21T14:37:18;6.28;;;5.32;;
48205;SDS011;33995;48.202;16.260;2023-08-21T14:39:52;6.13;;;5.13;;
48205;SDS011;33995;48.202;16.260;2023-08-21T14:42:22;5.60;;;5.10;;
48205;SDS011;33995;48.202;16.260;2023-08-21T14:45:01;5.32;;;4.93;;
48205;SDS011;33995;48.202;16.260;2023-08-21T14:47:32;5.60;;;5.20;;
48205;SDS011;33995;48.202;16.260;2023-08-21T14:50:06;5.30;;;4.90;;
48205;SDS011;33995;48.202;16.260;2023-08-21T14:53:03;5.72;;;4.55;;
48205;SDS011;33995;48.202;16.260;2023-08-21T14:55:33;5.20;;;4.80;;
48205;SDS011;33995;48.202;16.260;2023-08-21T14:58:04;5.05;;;4.53;;
48205;SDS011;33995;48.202;16.260;2023-08-21T15:00:41;5.78;;;4.70;;
48205;SDS011;33995;48.202;16.260;2023-08-21T15:03:10;5.38;;;4.93;;
48205;SDS011;33995;48.202;16.260;2023-08-21T15:05:54;5.20;;;4.80;;